Portada
METAR-TAF:

METAR-TAF

Aeroports :

Illa de Pasqua, Xile

latitud: 27-09S, longitud: 109-25W, altitud: 51 m

Observació

L'informe es va fer fa 39 minuts, a les 17:00 UTC
Vent 12 kt del Sud-Est
Temperatura 21°C
Humitat 56%
Pressió 1025 hPa
Visibilitat 10 km o més
Cel ennuvolat a una alçada de 4000 ft

METAR: SCIP 171700Z 14012KT 9999 BKN040 21/12 Q1025 NOSIG

Hora: 11:39 (17:39 UTC)

Pronòstic

L'informe es va fer fa 7 hores i 29 minuts, a les 10:10 UTC
Pronòstic vàlid del 17 a les 12 UTC al 18 a les 12 UTC
Vent 12 kt del Sud
Visibilitat 10 km o més
Núvols disperses a una alçada de 3000 ft
Temporalment
l' 18 a les 02 UTC al 18 a les 08 UTC
Visibilitat: 5000 m
Núvols disperses a una alçada de 1500 ft
Cel ennuvolat a una alçada de 2500 ft
xàfecs de pluja

TAF: SCIP 171010Z 1712/1812 17012KT 9999 SCT030 TX22/1720Z TN16/1807Z TEMPO 1802/1808 5000 -SHRA SCT015 BKN025

Observacions i pronòstics meteorològics de més de 4000 aeroports (METAR i TAF).

Les estacions disponibles són els punts grocs i vermells al mapa.

Posi el ratolí al punt desitjat per veure el nom de l'estació.

Feu clic per veure les observacions i els pronòstics meteorològics.

Per canviar el mapa: feu clic els botons verds amb una creu de color negre per apropar; al botó verd amb un guió per allunyar la imatge; o en les fletxes verdes per a mapes adjacents.


METAR-TAF: